sensor_id;sensor_type;location;lat;lon;timestamp;temperature;humidity
20315;DHT22;10315;50.958;13.080;2022-07-23T00:03:08;17.40;99.90
20315;DHT22;10315;50.958;13.080;2022-07-23T00:13:11;17.20;99.90
20315;DHT22;10315;50.958;13.080;2022-07-23T00:23:13;17.20;99.90
20315;DHT22;10315;50.958;13.080;2022-07-23T00:33:16;17.00;99.90
20315;DHT22;10315;50.958;13.080;2022-07-23T00:43:20;16.90;99.90
20315;DHT22;10315;50.958;13.080;2022-07-23T00:53:23;16.90;99.90
20315;DHT22;10315;50.958;13.080;2022-07-23T01:03:24;17.00;99.90
20315;DHT22;10315;50.958;13.080;2022-07-23T01:13:27;16.90;99.90
20315;DHT22;10315;50.958;13.080;2022-07-23T01:23:30;16.80;99.90
20315;DHT22;10315;50.958;13.080;2022-07-23T01:33:32;16.70;99.90
20315;DHT22;10315;50.958;13.080;2022-07-23T01:43:38;16.60;99.90
20315;DHT22;10315;50.958;13.080;2022-07-23T01:53:39;16.70;99.90
20315;DHT22;10315;50.958;13.080;2022-07-23T02:03:42;16.60;99.90
20315;DHT22;10315;50.958;13.080;2022-07-23T02:13:44;16.50;99.90
20315;DHT22;10315;50.958;13.080;2022-07-23T02:23:47;16.60;99.90
20315;DHT22;10315;50.958;13.080;2022-07-23T02:33:48;16.60;99.90
20315;DHT22;10315;50.958;13.080;2022-07-23T02:43:51;16.50;99.90
20315;DHT22;10315;50.958;13.080;2022-07-23T02:53:53;16.30;99.90
20315;DHT22;10315;50.958;13.080;2022-07-23T03:03:56;16.30;99.90
20315;DHT22;10315;50.958;13.080;2022-07-23T03:13:57;16.30;99.90
20315;DHT22;10315;50.958;13.080;2022-07-23T03:24:00;16.20;99.90
20315;DHT22;10315;50.958;13.080;2022-07-23T03:34:02;15.90;99.90
20315;DHT22;10315;50.958;13.080;2022-07-23T03:44:05;15.90;99.90
20315;DHT22;10315;50.958;13.080;2022-07-23T03:54:07;16.00;99.90
20315;DHT22;10315;50.958;13.080;2022-07-23T04:04:10;16.10;99.90
20315;DHT22;10315;50.958;13.080;2022-07-23T04:14:11;16.40;99.90
20315;DHT22;10315;50.958;13.080;2022-07-23T04:24:14;16.60;99.90
20315;DHT22;10315;50.958;13.080;2022-07-23T04:34:16;16.80;99.90
20315;DHT22;10315;50.958;13.080;2022-07-23T04:44:19;17.20;99.90
20315;DHT22;10315;50.958;13.080;2022-07-23T04:54:21;17.30;99.90
20315;DHT22;10315;50.958;13.080;2022-07-23T05:04:24;17.30;99.90
20315;DHT22;10315;50.958;13.080;2022-07-23T05:14:25;17.40;99.90
20315;DHT22;10315;50.958;13.080;2022-07-23T05:24:29;17.20;99.90
20315;DHT22;10315;50.958;13.080;2022-07-23T05:34:35;17.40;99.90
20315;DHT22;10315;50.958;13.080;2022-07-23T05:44:37;17.40;99.90
20315;DHT22;10315;50.958;13.080;2022-07-23T05:54:39;17.20;99.90
20315;DHT22;10315;50.958;13.080;2022-07-23T06:04:43;17.30;99.90
20315;DHT22;10315;50.958;13.080;2022-07-23T06:14:46;17.60;99.90
20315;DHT22;10315;50.958;13.080;2022-07-23T06:24:50;19.50;99.90
20315;DHT22;10315;50.958;13.080;2022-07-23T06:34:52;20.00;99.90
20315;DHT22;10315;50.958;13.080;2022-07-23T06:44:55;19.90;99.90
20315;DHT22;10315;50.958;13.080;2022-07-23T06:54:59;22.90;99.90
20315;DHT22;10315;50.958;13.080;2022-07-23T07:05:03;31.50;99.20
20315;DHT22;10315;50.958;13.080;2022-07-23T07:15:18;28.50;96.90
20315;DHT22;10315;50.958;13.080;2022-07-23T07:25:21;25.70;99.90
20315;DHT22;10315;50.958;13.080;2022-07-23T07:35:22;28.20;99.40
20315;DHT22;10315;50.958;13.080;2022-07-23T07:45:25;25.90;99.90
20315;DHT22;10315;50.958;13.080;2022-07-23T07:55:27;25.30;99.90
20315;DHT22;10315;50.958;13.080;2022-07-23T08:05:30;31.20;96.20
20315;DHT22;10315;50.958;13.080;2022-07-23T08:15:32;34.20;79.00
20315;DHT22;10315;50.958;13.080;2022-07-23T08:25:37;30.90;85.00
20315;DHT22;10315;50.958;13.080;2022-07-23T08:35:41;31.80;84.40
20315;DHT22;10315;50.958;13.080;2022-07-23T08:45:46;37.40;68.50
20315;DHT22;10315;50.958;13.080;2022-07-23T08:55:50;32.20;76.60
20315;DHT22;10315;50.958;13.080;2022-07-23T09:05:54;30.70;82.20
20315;DHT22;10315;50.958;13.080;2022-07-23T09:15:58;32.10;79.20
20315;DHT22;10315;50.958;13.080;2022-07-23T09:26:02;38.20;66.40
20315;DHT22;10315;50.958;13.080;2022-07-23T09:36:04;41.20;57.90
20315;DHT22;10315;50.958;13.080;2022-07-23T09:46:24;37.20;61.10
20315;DHT22;10315;50.958;13.080;2022-07-23T09:56:27;34.50;66.40
20315;DHT22;10315;50.958;13.080;2022-07-23T10:06:31;34.90;66.70
20315;DHT22;10315;50.958;13.080;2022-07-23T10:16:33;36.30;64.50
20315;DHT22;10315;50.958;13.080;2022-07-23T10:26:41;34.80;65.90
20315;DHT22;10315;50.958;13.080;2022-07-23T10:36:52;33.40;70.10
20315;DHT22;10315;50.958;13.080;2022-07-23T10:46:58;31.40;74.00
20315;DHT22;10315;50.958;13.080;2022-07-23T10:57:14;29.80;79.20
20315;DHT22;10315;50.958;13.080;2022-07-23T11:07:20;27.60;90.30
20315;DHT22;10315;50.958;13.080;2022-07-23T11:17:22;25.70;99.90
20315;DHT22;10315;50.958;13.080;2022-07-23T11:27:38;23.20;99.90
20315;DHT22;10315;50.958;13.080;2022-07-23T11:37:40;23.60;99.90
20315;DHT22;10315;50.958;13.080;2022-07-23T11:47:43;24.90;99.90
20315;DHT22;10315;50.958;13.080;2022-07-23T11:57:45;24.10;99.90
20315;DHT22;10315;50.958;13.080;2022-07-23T12:07:55;25.80;99.90
20315;DHT22;10315;50.958;13.080;2022-07-23T12:18:00;27.20;99.90
20315;DHT22;10315;50.958;13.080;2022-07-23T12:28:06;28.50;99.90
20315;DHT22;10315;50.958;13.080;2022-07-23T12:38:11;27.90;99.90
20315;DHT22;10315;50.958;13.080;2022-07-23T12:48:38;28.10;99.90
20315;DHT22;10315;50.958;13.080;2022-07-23T12:58:42;28.60;99.90
20315;DHT22;10315;50.958;13.080;2022-07-23T13:08:46;29.10;99.90
20315;DHT22;10315;50.958;13.080;2022-07-23T13:18:48;28.30;99.90
20315;DHT22;10315;50.958;13.080;2022-07-23T13:28:51;27.40;99.90
20315;DHT22;10315;50.958;13.080;2022-07-23T13:38:56;27.20;99.90
20315;DHT22;10315;50.958;13.080;2022-07-23T13:48:59;26.80;99.90
20315;DHT22;10315;50.958;13.080;2022-07-23T13:59:00;27.10;99.90
20315;DHT22;10315;50.958;13.080;2022-07-23T14:09:03;26.90;99.90
20315;DHT22;10315;50.958;13.080;2022-07-23T14:19:05;26.40;99.90
20315;DHT22;10315;50.958;13.080;2022-07-23T14:29:08;25.80;99.90
20315;DHT22;10315;50.958;13.080;2022-07-23T14:39:10;26.30;99.90
20315;DHT22;10315;50.958;13.080;2022-07-23T14:49:13;26.90;99.90
20315;DHT22;10315;50.958;13.080;2022-07-23T14:59:15;25.90;99.90
20315;DHT22;10315;50.958;13.080;2022-07-23T15:09:21;25.50;99.90
20315;DHT22;10315;50.958;13.080;2022-07-23T15:19:23;26.20;99.90
20315;DHT22;10315;50.958;13.080;2022-07-23T15:29:26;25.10;99.90
20315;DHT22;10315;50.958;13.080;2022-07-23T15:39:31;25.00;99.90
20315;DHT22;10315;50.958;13.080;2022-07-23T15:49:34;24.90;99.90
20315;DHT22;10315;50.958;13.080;2022-07-23T15:59:36;24.90;99.90
20315;DHT22;10315;50.958;13.080;2022-07-23T16:09:39;24.80;99.90
20315;DHT22;10315;50.958;13.080;2022-07-23T16:19:40;24.80;99.90
20315;DHT22;10315;50.958;13.080;2022-07-23T16:29:43;24.60;99.90
20315;DHT22;10315;50.958;13.080;2022-07-23T16:39:45;24.00;99.90
20315;DHT22;10315;50.958;13.080;2022-07-23T16:49:48;23.90;99.90
20315;DHT22;10315;50.958;13.080;2022-07-23T16:59:50;24.00;99.90
20315;DHT22;10315;50.958;13.080;2022-07-23T17:09:53;24.50;99.90
20315;DHT22;10315;50.958;13.080;2022-07-23T17:19:55;24.70;99.90
20315;DHT22;10315;50.958;13.080;2022-07-23T17:29:58;24.10;99.90
20315;DHT22;10315;50.958;13.080;2022-07-23T17:40:00;23.60;99.90
20315;DHT22;10315;50.958;13.080;2022-07-23T17:50:04;23.10;99.90
20315;DHT22;10315;50.958;13.080;2022-07-23T18:00:08;23.00;99.90
20315;DHT22;10315;50.958;13.080;2022-07-23T18:10:11;22.80;99.90
20315;DHT22;10315;50.958;13.080;2022-07-23T18:20:13;22.50;99.90
20315;DHT22;10315;50.958;13.080;2022-07-23T18:30:16;22.00;99.90
20315;DHT22;10315;50.958;13.080;2022-07-23T18:40:19;21.60;99.90
20315;DHT22;10315;50.958;13.080;2022-07-23T18:50:22;21.20;99.90
20315;DHT22;10315;50.958;13.080;2022-07-23T19:00:25;20.60;99.90
20315;DHT22;10315;50.958;13.080;2022-07-23T19:10:28;20.20;99.90
20315;DHT22;10315;50.958;13.080;2022-07-23T19:20:30;19.80;99.90
20315;DHT22;10315;50.958;13.080;2022-07-23T19:30:33;19.30;99.90
20315;DHT22;10315;50.958;13.080;2022-07-23T19:40:34;18.90;99.90
20315;DHT22;10315;50.958;13.080;2022-07-23T19:50:37;18.60;99.90
20315;DHT22;10315;50.958;13.080;2022-07-23T20:00:39;18.30;99.90
20315;DHT22;10315;50.958;13.080;2022-07-23T20:10:42;17.90;99.90
20315;DHT22;10315;50.958;13.080;2022-07-23T20:20:44;17.70;99.90
20315;DHT22;10315;50.958;13.080;2022-07-23T20:30:47;17.50;99.90
20315;DHT22;10315;50.958;13.080;2022-07-23T20:40:48;17.40;99.90
20315;DHT22;10315;50.958;13.080;2022-07-23T20:50:51;17.30;99.90
20315;DHT22;10315;50.958;13.080;2022-07-23T21:00:53;16.90;99.90
20315;DHT22;10315;50.958;13.080;2022-07-23T21:10:56;16.80;99.90
20315;DHT22;10315;50.958;13.080;2022-07-23T21:20:58;17.10;99.90
20315;DHT22;10315;50.958;13.080;2022-07-23T21:31:16;17.30;99.90
20315;DHT22;10315;50.958;13.080;2022-07-23T21:41:17;16.90;99.90
20315;DHT22;10315;50.958;13.080;2022-07-23T21:51:20;16.30;99.90
20315;DHT22;10315;50.958;13.080;2022-07-23T22:01:22;16.10;99.90
20315;DHT22;10315;50.958;13.080;2022-07-23T22:11:25;16.10;99.90
20315;DHT22;10315;50.958;13.080;2022-07-23T22:21:27;16.20;99.90
20315;DHT22;10315;50.958;13.080;2022-07-23T22:31:30;16.40;99.90
20315;DHT22;10315;50.958;13.080;2022-07-23T22:41:31;16.20;99.90
20315;DHT22;10315;50.958;13.080;2022-07-23T22:51:34;16.10;99.90
20315;DHT22;10315;50.958;13.080;2022-07-23T23:01:36;15.90;99.90
20315;DHT22;10315;50.958;13.080;2022-07-23T23:11:39;15.80;99.90
20315;DHT22;10315;50.958;13.080;2022-07-23T23:21:41;15.30;99.90
20315;DHT22;10315;50.958;13.080;2022-07-23T23:31:44;14.60;99.90
20315;DHT22;10315;50.958;13.080;2022-07-23T23:41:45;14.50;99.90
20315;DHT22;10315;50.958;13.080;2022-07-23T23:51:48;14.30;99.90
